createdAt,value
2022-10-26T04:02:00.881Z,11.44
2022-10-26T04:05:04.086Z,11.44
2022-10-26T04:08:06.133Z,11.04
2022-10-26T04:11:08.447Z,10.90
2022-10-26T04:14:10.467Z,11.03
2022-10-26T04:17:12.779Z,11.01
2022-10-26T04:20:15.464Z,10.98
2022-10-26T04:23:19.375Z,10.97
2022-10-26T04:26:21.461Z,10.95
2022-10-26T04:29:23.758Z,10.97
2022-10-26T04:32:26.678Z,10.94
2022-10-26T04:35:29.625Z,10.92
2022-10-26T04:38:31.665Z,11.02
2022-10-26T04:41:33.965Z,10.97
2022-10-26T04:44:35.977Z,10.85
2022-10-26T04:47:39.084Z,10.85
2022-10-26T04:50:41.429Z,10.78
2022-10-26T04:53:44.278Z,10.87
2022-10-26T04:59:53.501Z,10.84
2022-10-26T05:03:02.950Z,10.84
2022-10-26T05:06:05.412Z,10.77
2022-10-26T05:09:07.470Z,10.79
2022-10-26T05:12:09.780Z,10.68
2022-10-26T05:15:14.506Z,10.72
2022-10-26T05:18:16.916Z,10.71
2022-10-26T05:21:21.565Z,10.84
2022-10-26T05:24:23.875Z,10.88
2022-10-26T05:27:25.936Z,10.84
2022-10-26T05:30:29.338Z,10.68
2022-10-26T05:33:31.360Z,10.77
2022-10-26T05:36:33.674Z,10.82
2022-10-26T05:39:35.709Z,10.94
2022-10-26T05:42:37.986Z,10.83
2022-10-26T05:45:40.010Z,10.84
2022-10-26T05:48:42.428Z,10.86
2022-10-26T05:51:44.586Z,10.91
2022-10-26T05:54:46.968Z,10.92
2022-10-26T05:57:49.551Z,11.01
2022-10-26T06:01:07.893Z,11.03
2022-10-26T06:04:25.495Z,11.01
2022-10-26T06:07:27.910Z,11.05
2022-10-26T06:10:30.570Z,11.05
2022-10-26T06:13:32.980Z,11.11
2022-10-26T06:16:53.371Z,11.13
2022-10-26T06:20:08.639Z,11.23
2022-10-26T06:23:29.618Z,11.21
2022-10-26T06:26:56.304Z,11.26
2022-10-26T06:30:07.726Z,11.36
2022-10-26T06:33:24.928Z,11.28
2022-10-26T06:36:33.112Z,11.37
2022-10-26T06:39:42.419Z,11.50
2022-10-26T06:42:45.333Z,11.51
2022-10-26T06:45:51.195Z,11.61
2022-10-26T06:49:07.074Z,11.78
2022-10-26T06:52:19.427Z,11.95
2022-10-26T06:55:22.265Z,12.12
2022-10-26T06:58:28.971Z,12.10
2022-10-26T07:01:31.368Z,12.20
2022-10-26T07:04:34.245Z,12.21
2022-10-26T07:07:41.123Z,12.23
2022-10-26T07:10:43.578Z,12.27
2022-10-26T07:13:45.814Z,12.23
2022-10-26T07:16:47.854Z,12.20
2022-10-26T07:19:50.141Z,12.17
2022-10-26T07:22:56.663Z,12.14
2022-10-26T07:26:00.258Z,12.17
2022-10-26T07:29:02.331Z,12.22
2022-10-26T07:32:04.923Z,12.20
2022-10-26T07:35:07.690Z,12.12
2022-10-26T07:38:12.213Z,12.03
2022-10-26T07:41:14.305Z,12.03
2022-10-26T07:44:16.609Z,12.18
2022-10-26T07:47:30.472Z,12.30
2022-10-26T07:50:32.842Z,12.11
2022-10-26T07:53:34.897Z,12.17
2022-10-26T07:56:37.190Z,12.11
2022-10-26T07:59:39.410Z,12.27
2022-10-26T08:02:42.179Z,12.14
2022-10-26T08:05:51.211Z,12.22
2022-10-26T08:08:53.265Z,12.21
2022-10-26T08:11:55.542Z,12.39
2022-10-26T08:14:58.127Z,12.29
2022-10-26T08:18:00.652Z,12.21
2022-10-26T08:21:11.124Z,12.34
2022-10-26T08:24:14.160Z,12.33
2022-10-26T08:27:16.535Z,12.27
2022-10-26T08:30:18.892Z,12.38
2022-10-26T08:33:21.718Z,12.51
2022-10-26T08:36:26.248Z,12.58
2022-10-26T08:39:30.534Z,12.75
2022-10-26T08:42:36.957Z,12.77
2022-10-26T08:45:42.629Z,12.80
2022-10-26T08:48:54.366Z,12.96
2022-10-26T08:52:01.688Z,12.99
2022-10-26T08:55:09.029Z,13.04
2022-10-26T08:58:16.355Z,13.24
2022-10-26T09:01:19.095Z,13.28
2022-10-26T09:04:27.586Z,13.35
2022-10-26T09:07:57.050Z,13.47
2022-10-26T09:11:28.157Z,13.52
2022-10-26T09:15:08.682Z,13.51
2022-10-26T09:18:48.867Z,13.54
2022-10-26T09:22:18.650Z,13.76
2022-10-26T09:25:24.450Z,13.89
2022-10-26T09:28:31.819Z,13.92
2022-10-26T09:31:46.308Z,13.94
2022-10-26T09:34:52.748Z,14.04
2022-10-26T09:38:06.052Z,14.03
2022-10-26T09:41:08.260Z,14.07
2022-10-26T09:44:25.958Z,14.23
2022-10-26T09:47:52.836Z,14.28
2022-10-26T09:51:00.514Z,14.25
2022-10-26T09:54:14.964Z,14.38
2022-10-26T09:57:19.997Z,14.37
2022-10-26T10:00:25.993Z,14.49
2022-10-26T10:03:30.862Z,14.39
2022-10-26T10:06:32.884Z,14.43
2022-10-26T10:09:35.177Z,14.48
2022-10-26T10:12:37.210Z,14.64
2022-10-26T10:15:39.537Z,14.66
2022-10-26T10:18:42.702Z,14.65
2022-10-26T10:21:49.047Z,14.65
2022-10-26T10:24:59.495Z,14.71
2022-10-26T10:28:03.650Z,14.73
2022-10-26T10:31:28.121Z,14.62
2022-10-26T10:34:31.783Z,14.71
2022-10-26T10:37:44.245Z,14.76
2022-10-26T10:40:52.302Z,14.79
2022-10-26T10:44:02.674Z,14.80
2022-10-26T10:47:07.288Z,14.89
2022-10-26T10:50:20.555Z,14.77
2022-10-26T10:53:43.582Z,14.62
2022-10-26T10:56:51.149Z,14.54
2022-10-26T11:00:04.689Z,14.70
2022-10-26T11:03:32.654Z,14.84
2022-10-26T11:06:38.148Z,14.95
2022-10-26T11:09:43.567Z,14.85
2022-10-26T11:12:59.625Z,14.89
2022-10-26T11:16:05.814Z,14.88
2022-10-26T11:19:19.953Z,14.89
2022-10-26T11:22:27.908Z,15.00
2022-10-26T11:25:37.049Z,15.09
2022-10-26T11:29:01.130Z,15.28
2022-10-26T11:32:23.514Z,15.24
2022-10-26T11:35:35.494Z,15.36
2022-10-26T11:38:59.953Z,15.37
2022-10-26T11:42:18.584Z,15.44
2022-10-26T11:45:39.709Z,15.38
2022-10-26T11:49:04.773Z,15.38
2022-10-26T11:52:18.062Z,15.30
2022-10-26T11:55:22.662Z,15.39
2022-10-26T11:58:27.625Z,15.44
2022-10-26T12:01:31.544Z,15.52
2022-10-26T12:04:38.122Z,15.49
2022-10-26T12:07:41.994Z,15.42
2022-10-26T12:10:50.898Z,15.47
2022-10-26T12:14:07.257Z,15.43
2022-10-26T12:17:30.470Z,15.50
2022-10-26T12:21:04.529Z,15.63
2022-10-26T12:24:27.787Z,15.93
2022-10-26T12:27:44.024Z,16.04
2022-10-26T12:30:46.317Z,15.93
2022-10-26T12:33:51.652Z,15.95
2022-10-26T12:36:56.775Z,16.01
2022-10-26T12:40:32.916Z,16.06
2022-10-26T12:43:37.984Z,16.08
2022-10-26T12:46:41.570Z,16.14
2022-10-26T12:50:05.850Z,16.20
2022-10-26T12:53:17.505Z,16.20
2022-10-26T12:56:36.271Z,16.20
2022-10-26T13:00:00.969Z,16.25
2022-10-26T13:03:10.994Z,16.30
2022-10-26T13:06:38.475Z,16.37
2022-10-26T13:09:45.782Z,16.48
2022-10-26T13:12:50.221Z,16.54
2022-10-26T13:15:55.640Z,16.56
2022-10-26T13:18:59.281Z,16.60
2022-10-26T13:22:01.765Z,16.60
2022-10-26T13:25:06.261Z,16.54
2022-10-26T13:28:37.644Z,16.53
2022-10-26T13:31:41.441Z,16.63
2022-10-26T13:34:44.473Z,16.56
2022-10-26T13:37:49.207Z,16.57
2022-10-26T13:41:05.959Z,16.62
2022-10-26T13:44:18.325Z,16.63
2022-10-26T13:47:29.840Z,16.54
2022-10-26T13:54:15.963Z,16.51
2022-10-26T13:57:37.952Z,16.44
2022-10-26T14:00:40.503Z,16.44
2022-10-26T14:03:44.056Z,16.45
2022-10-26T14:06:51.517Z,16.45
2022-10-26T14:09:56.581Z,16.44
2022-10-26T14:13:00.146Z,16.41
2022-10-26T14:16:09.314Z,16.41
2022-10-26T14:19:19.631Z,16.43
2022-10-26T14:22:27.325Z,16.42
2022-10-26T14:25:41.976Z,16.42
2022-10-26T14:28:50.461Z,16.43
2022-10-26T14:31:54.797Z,16.41
2022-10-26T14:34:57.173Z,16.39
2022-10-26T14:38:15.541Z,16.38
2022-10-26T14:41:18.185Z,16.38
2022-10-26T14:44:23.317Z,16.39
2022-10-26T14:47:31.864Z,16.43
2022-10-26T14:50:36.143Z,16.41
2022-10-26T14:53:41.290Z,16.42
2022-10-26T14:56:44.210Z,16.41
2022-10-26T15:00:00.593Z,16.43
2022-10-26T15:03:02.783Z,16.43
2022-10-26T15:06:30.284Z,16.40
2022-10-26T15:09:42.974Z,16.43
2022-10-26T15:12:45.275Z,16.43
2022-10-26T15:15:49.912Z,16.38
2022-10-26T15:19:09.145Z,16.35
2022-10-26T15:22:22.260Z,16.28
2022-10-26T15:25:28.254Z,16.27
2022-10-26T15:28:31.690Z,16.30
2022-10-26T15:31:34.321Z,16.28
2022-10-26T15:34:36.385Z,16.35
2022-10-26T15:37:38.915Z,16.36
2022-10-26T15:40:44.439Z,16.36
2022-10-26T15:43:48.783Z,16.39
